Latest Coastal Weather Observations for Bairnsdale

IDV60701

Issued at 2:51 am EST Saturday 29 July 2017 (issued every 10 minutes, with the page automatically refreshed every 10 minutes)

About coastal observations | Map of coastal stations | Coastal observations for VIC | Marine services | Other Formats
Station Details ID: 085279 Name: BAIRNSDALE AIRPORT Lat: -37.88 Lon: 147.57 Height: 49.4 m
Data from the previous 72 hours. | See also: Recent months at Bairnsdale
Date/Time
EST
Temp
°C
Wind Pressure Rain since
9am
mm
Weather Cloud Vis
km
Sea
Height
m
Swell
Dir  Spd
kts
Gust
kts
hPa Trend Height
m
Period
s
Dir
29/02:30am 1.9 ENE 3 4 1017.2 - 0.0 - - - - - - -
29/02:00am 2.9 CALM 0 0 1017.4 - 0.0 - - - - - - -
29/01:30am 3.6 N 3 4 1017.8 - 0.0 - - - - - - -
29/01:00am 4.7 NNE 4 6 1017.9 - 0.0 - - - - - - -
29/12:30am 5.0 N 5 6 1018.2 - 0.0 - - - - - - -
29/12:00am 4.1 NNW 5 6 1018.9 - 0.0 - - - - - - -
 
Date/Time
EST
Temp
°C
Wind Pressure Rain since
9am
mm
Weather Cloud Vis
km
Sea
Height
m
Swell
Dir  Spd
kts
Gust
kts
hPa Trend Height
m
Period
s
Dir
28/11:30pm 4.3 NNW 4 5 1019.2 - 0.0 - - - - - - -
28/11:00pm 4.4 NNW 5 6 1019.7 - 0.0 - - - - - - -
28/10:30pm 3.6 NW 6 7 1019.9 - 0.0 - - - - - - -
28/10:00pm 5.0 NNW 5 6 1019.6 - 0.0 - - - - - - -
28/09:30pm 3.7 NW 6 7 1019.8 - 0.0 - - - - - - -
28/09:00pm 4.5 NW 6 7 1020.0 - 0.0 - - - - - - -
28/08:30pm 5.5 NW 5 6 1019.9 - 0.0 - - - - - - -
28/08:00pm 5.4 NW 6 7 1020.1 - 0.0 - - - - - - -
28/07:30pm 7.2 WSW 6 7 1019.7 - 0.0 - - - - - - -
28/07:00pm 8.7 SW 11 13 1019.2 - 0.0 - - - - - - -
28/06:30pm 8.9 SW 10 13 1019.0 - 0.0 - - - - - - -
28/06:00pm 10.0 SW 10 13 1018.9 - 0.0 - - - - - - -
28/05:30pm 10.6 SW 10 13 1018.9 - 0.0 - - - - - - -
28/05:00pm 11.8 WSW 13 17 1018.4 - 0.0 - - - - - - -
28/04:30pm 12.8 WSW 15 19 1018.0 - 0.0 - - - - - - -
28/04:00pm 13.5 WSW 15 21 1017.7 - 0.0 - - - - - - -
28/03:30pm 14.3 WSW 14 22 1017.6 - 0.0 - Partly cloudy - - - - -
28/03:00pm 14.3 WSW 15 20 1017.2 - 0.0 - - - - - - -
28/02:32pm 13.9 WSW 16 26 1017.2 - 0.0 - Partly cloudy - - - - -
28/02:30pm 14.3 WSW 15 20 1017.2 - 0.0 - Partly cloudy - - - - -
28/02:00pm 14.2 W 16 22 1017.1 - 0.0 - Partly cloudy - - - - -
28/01:30pm 13.4 WSW 18 23 1017.0 - 0.0 - Partly cloudy - - - - -
28/01:05pm 13.3 W 16 26 1017.0 - 0.0 - Partly cloudy - - - - -
28/01:00pm 13.4 W 13 22 1017.1 - 0.0 - Partly cloudy - - - - -
28/12:30pm 13.6 W 15 26 1017.4 - 0.0 - Partly cloudy - - - - -
28/12:27pm 14.0 W 16 26 1017.4 - 0.0 - Partly cloudy - - - - -
28/12:00pm 11.9 WSW 15 21 1017.7 - 0.0 - Cloudy - - - - -
28/11:30am 12.4 W 14 21 1017.8 - 0.0 - Partly cloudy - - - - -
28/11:00am 12.5 W 13 17 1017.6 - 0.0 - Partly cloudy - - - - -
28/10:30am 12.7 W 14 21 1017.5 - 0.0 - - - - - - -
28/10:00am 12.0 W 12 18 1017.0 - 0.0 - - - - - - -
28/09:30am 11.7 W 10 15 1016.9 - 0.0 - Partly cloudy - - - - -
28/09:00am 10.2 WNW 9 14 1016.6 - 3.0 - Partly cloudy - - - - -
28/08:30am 8.8 WNW 8 11 1016.4 - 3.0 - Partly cloudy - - - - -
28/08:00am 8.0 WNW 8 10 1016.1 - 3.0 - Partly cloudy - - - - -
28/07:30am 7.3 WNW 9 11 1015.7 - 3.0 - Partly cloudy - - - - -
28/07:00am 7.9 WNW 7 9 1015.2 - 3.0 - Partly cloudy - - - - -
28/06:30am 8.0 WNW 8 10 1014.8 - 3.0 - Partly cloudy - - - - -
28/06:00am 7.8 WNW 7 10 1014.5 - 3.0 - Cloudy - - - - -
28/05:30am 8.0 NW 7 10 1014.1 - 3.0 - Partly cloudy - - - - -
28/05:00am 8.0 NW 8 10 1013.8 - 3.0 - Partly cloudy - - - - -
28/04:30am 8.3 WNW 10 13 1013.6 - 2.8 - Cloudy - - - - -
28/04:00am 8.7 W 14 18 1013.7 - 1.6 - Partly cloudy - - - - -
28/03:30am 10.6 W 11 15 1012.8 - 0.6 - Partly cloudy - - - - -
28/03:00am 10.6 WNW 7 10 1012.2 - 0.6 Recent precip. Cloudy - - - - -
28/02:30am 10.5 NW 7 11 1012.0 - 0.6 - Partly cloudy - - - - -
28/02:00am 9.2 NNW 3 7 1012.6 - 0.4 - Cloudy - - - - -
28/01:30am 8.8 NNE 5 6 1012.8 - 0.4 - Cloudy - - - - -
28/01:00am 8.2 N 3 7 1012.8 - 0.2 - Partly cloudy - - - - -
28/12:30am 8.9 NNE 3 4 1012.8 - 0.0 - Partly cloudy - - - - -
28/12:00am 9.3 ENE 7 9 1013.0 - 0.0 - Mostly cloudy - - - - -
 
Date/Time
EST
Temp
°C
Wind Pressure Rain since
9am
mm
Weather Cloud Vis
km
Sea
Height
m
Swell
Dir  Spd
kts
Gust
kts
hPa Trend Height
m
Period
s
Dir
27/11:30pm 9.0 ENE 9 12 1013.3 - 0.0 - Partly cloudy - - - - -
27/11:00pm 8.4 NE 6 7 1014.8 - 0.0 - - - - - - -
27/10:30pm 8.9 ENE 5 6 1015.4 - 0.0 - - - - - - -
27/10:00pm 10.1 NW 1 3 1015.9 - 0.0 - - - - - - -
27/09:30pm 10.5 NW 5 8 1016.4 - 0.0 - - - - - - -
27/09:00pm 11.3 WNW 8 14 1016.4 - 0.0 - Mostly cloudy - - - - -
27/08:30pm 11.4 NW 10 14 1015.9 - 0.0 - - - - - - -
27/08:00pm 10.4 NNW 10 14 1015.7 - 0.0 - - - - - - -
27/07:30pm 7.7 N 4 9 1015.8 - 0.0 - - - - - - -
27/07:00pm 6.9 ESE 2 4 1016.0 - 0.0 - - - - - - -
27/06:30pm 8.3 SE 5 5 1016.0 - 0.0 - - - - - - -
27/06:00pm 9.7 E 3 5 1015.9 - 0.0 - Partly cloudy - - - - -
27/05:30pm 10.6 E 7 8 1015.8 - 0.0 - - - - - - -
27/05:00pm 11.2 E 8 11 1015.9 - 0.0 - - - - - - -
27/04:30pm 11.8 E 9 10 1016.2 - 0.0 - - - - - - -
27/04:00pm 12.5 E 6 8 1017.0 - 0.0 - - - - - - -
27/03:30pm 13.2 E 8 10 1017.3 - 0.0 - - - - - - -
27/03:00pm 13.4 E 7 9 1017.8 - 0.0 - - - - - - -
27/02:30pm 13.6 E 8 10 1018.1 - 0.0 - - - - - - -
27/02:00pm 14.9 NNE 4 7 1019.0 - 0.0 - - - - - - -
27/01:30pm 14.1 NNE 5 8 1019.3 - 0.0 - - - - - - -
27/01:00pm 14.1 NE 5 7 1020.0 - 0.0 - - - - - - -
27/12:30pm 12.8 NE 6 8 1020.7 - 0.0 - - - - - - -
27/12:00pm 12.7 NE 7 10 1021.1 - 0.0 - - - - - - -
27/11:30am 11.8 NE 8 12 1021.8 - 0.0 - - - - - - -
27/11:00am 10.9 NE 7 11 1022.9 - 0.0 - - - - - - -
27/10:30am 10.1 NNE 5 8 1023.4 - 0.0 - - - - - - -
27/10:00am 8.6 NNE 4 5 1024.1 - 0.0 - - - - - - -
27/09:30am 7.2 NNW 5 5 1024.1 - 0.0 - - - - - - -
27/09:00am 6.2 NNW 4 5 1023.9 - 4.0 - - - - - - -
27/08:30am 4.5 NNW 6 7 1023.8 - 4.0 - - - - - - -
27/08:00am 3.3 NNW 5 6 1023.6 - 4.0 - - - - - - -
27/07:30am 2.1 NW 7 8 1023.5 - 4.0 - - - - - - -
27/07:00am 1.6 NW 5 6 1023.3 - 4.0 - - - - - - -
27/06:30am 2.3 NNW 4 5 1022.9 - 4.0 - - - - - - -
27/06:00am 2.9 NNW 7 8 1022.6 - 4.0 - - - - - - -
27/05:30am 2.8 NW 6 8 1022.6 - 4.0 - Partly cloudy - - - - -
27/05:00am 4.7 NW 6 9 1022.6 - 4.0 - Cloudy - - - - -
27/04:30am 5.1 NW 7 8 1022.6 - 4.0 - Cloudy - - - - -
27/04:00am 4.6 NW 5 7 1022.8 - 4.0 - Partly cloudy - - - - -
27/03:30am 5.8 NW 5 7 1023.0 - 4.0 - Cloudy - - - - -
27/03:00am 5.0 NW 6 7 1023.3 - 4.0 - Partly cloudy - - - - -
27/02:30am 6.5 WNW 5 7 1023.4 - 4.0 - Cloudy - - - - -
27/02:00am 6.4 WNW 7 8 1023.5 - 4.0 - Partly cloudy - - - - -
27/01:30am 6.4 WNW 7 8 1023.4 - 4.0 - Cloudy - - - - -
27/01:00am 6.6 WNW 7 9 1023.2 - 4.0 - Cloudy - - - - -
27/12:30am 6.2 NW 6 7 1023.4 - 4.0 - Cloudy - - - - -
27/12:00am 6.1 WNW 6 8 1023.5 - 4.0 - Cloudy - - - - -
 
Date/Time
EST
Temp
°C
Wind Pressure Rain since
9am
mm
Weather Cloud Vis
km
Sea
Height
m
Swell
Dir  Spd
kts
Gust
kts
hPa Trend Height
m
Period
s
Dir
26/11:30pm 5.9 WNW 8 9 1023.5 - 4.0 - Partly cloudy - - - - -
26/11:00pm 3.9 NW 6 7 1023.6 - 4.0 - - - - - - -
26/10:30pm 4.2 WNW 6 7 1023.5 - 4.0 - - - - - - -
26/10:00pm 6.4 WNW 7 8 1023.2 - 4.0 - - - - - - -
26/09:30pm 6.7 WNW 8 10 1023.1 - 4.0 - - - - - - -
26/09:00pm 7.0 WNW 8 10 1022.7 - 4.0 - - - - - - -
26/08:30pm 6.5 W 7 9 1022.5 - 4.0 - - - - - - -
26/08:00pm 6.9 WNW 7 8 1022.5 - 4.0 - - - - - - -
26/07:30pm 7.0 WNW 7 9 1022.1 - 4.0 - - - - - - -
26/07:00pm 6.7 WNW 6 8 1021.8 - 4.0 - - - - - - -
26/06:30pm 7.4 NW 6 7 1021.3 - 4.0 - Partly cloudy - - - - -
26/06:00pm 9.4 W 9 15 1020.7 - 4.0 - Mostly clear - - - - -
26/05:30pm 9.5 WSW 9 11 1020.2 - 4.0 - Partly cloudy - - - - -
26/05:00pm 10.3 WSW 10 15 1019.9 - 4.0 - Partly cloudy - - - - -
26/04:30pm 11.0 WSW 11 15 1019.3 - 4.0 - Partly cloudy - - - - -
26/04:00pm 11.7 SW 11 16 1018.9 - 4.0 - Partly cloudy - - - - -
26/03:30pm 10.5 WSW 10 16 1018.3 - 4.0 - Partly cloudy - - - - -
26/03:00pm 9.9 SW 12 16 1017.7 - 3.2 Rain Cloudy - - - - -
26/02:30pm 10.9 WSW 10 14 1017.4 - 2.4 - Partly cloudy - - - - -
26/02:00pm 9.9 WSW 14 21 1016.7 - 2.2 - Partly cloudy - - - - -
26/01:30pm 10.0 WSW 14 19 1016.3 - 2.0 - Partly cloudy - - - - -
26/01:03pm 9.3 WSW 19 29 1015.6 - 1.8 - Partly cloudy - - - - -
26/01:00pm 9.8 WSW 20 29 1015.5 - 1.4 - Partly cloudy - - - - -
26/12:59pm 9.8 WSW 20 29 1015.5 - 1.4 - Partly cloudy - - - - -
26/12:33pm 14.8 W 21 33 1014.7 - 0.0 - Partly cloudy - - - - -
26/12:30pm 14.7 W 20 29 1014.8 - 0.0 - Partly cloudy - - - - -
26/12:00pm 14.2 W 18 28 1015.0 - 0.0 - Cloudy - - - - -
26/11:30am 13.7 W 22 33 1014.8 - 0.0 - Partly cloudy - - - - -
26/11:05am 14.4 W 19 29 1014.8 - 0.0 - Partly cloudy - - - - -
26/11:00am 14.3 W 19 27 1014.8 - 0.0 - Partly cloudy - - - - -
26/10:30am 14.3 W 18 28 1014.6 - 0.0 - Partly cloudy - - - - -
26/10:28am 14.3 W 18 28 1014.6 - 0.0 - Partly cloudy - - - - -
26/10:00am 15.0 WNW 19 25 1014.1 - 0.0 - Partly cloudy - - - - -
26/09:48am 14.8 WNW 17 28 1013.9 - 0.0 - Partly cloudy - - - - -
26/09:30am 14.5 WNW 17 23 1013.6 - 0.0 - - - - - - -
26/09:00am 14.1 WNW 13 20 1013.5 - 0.0 - Mostly clear - - - - -
26/08:30am 13.6 WNW 14 21 1013.2 - 0.0 - Partly cloudy - - - - -
26/08:00am 12.4 WNW 12 16 1012.9 - 0.0 - Partly cloudy - - - - -
26/07:30am 11.6 WNW 12 16 1012.8 - 0.0 - Partly cloudy - - - - -
26/07:00am 10.0 WNW 8 12 1012.1 - 0.0 - Partly cloudy - - - - -
26/06:30am 7.8 WNW 8 9 1011.7 - 0.0 - - - - - - -
26/06:00am 7.7 WNW 7 8 1011.5 - 0.0 - Partly cloudy - - - - -
26/05:30am 6.9 NW 4 5 1011.3 - 0.0 - Partly cloudy - - - - -
26/05:00am 7.0 NW 3 4 1011.3 - 0.0 - - - - - - -
26/04:30am 6.4 WNW 5 6 1011.1 - 0.0 - Partly cloudy - - - - -
26/04:00am 4.4 NNW 6 7 1010.9 - 0.0 - - - - - - -
26/03:30am 5.8 NW 6 11 1011.0 - 0.0 - - - - - - -
26/03:00am 4.1 W 5 7 1011.0 - 0.0 - - - - - - -

Other Formats:

Comma delimited format used in spreadsheet applications
http://www.bom.gov.au/fwo/IDV60701/IDV60701.94912.axf

JavaScript Object Notation format (JSON) in row-major order
http://www.bom.gov.au/fwo/IDV60701/IDV60701.94912.json